Springville, Pennsylvania
Current Conditions -  °F | °C
As of 11:54 AM on Friday 28 Nov 2014 (Local Time) from KAVP Reporting Station
Overcast Overcast  
Wind Chill: 17°   Ceiling: 3500
Heat Index: 28°   Visibility: 10mi
Dew Point: 14°   Wind: 15mph
Humidity: 56%   Direction: 320°NW
Pressure: 30.19"   Gusts: 22mph
Location:  41.7°N, 75.92°W
Report Text: KAVP 281654Z 32013G19KT 10SM OVC035 M02/M10 A3019 RMK AO2 SLP233 T10221100
Loading
Personal Weather Stations






























Interactive Weather Map New forecast layout! Learn more

10-Day Weather Forecast

Advertisements
Track Severe Weather on mobile